sensor_id;sensor_type;location;lat;lon;timestamp;P1;durP1;ratioP1;P2;durP2;ratioP2
52248;SDS011;38541;48.130;8.378;2024-03-06T00:00:21;1.30;;;1.20;;
52248;SDS011;38541;48.130;8.378;2024-03-06T00:02:48;2.22;;;1.30;;
52248;SDS011;38541;48.130;8.378;2024-03-06T00:05:15;1.77;;;1.63;;
52248;SDS011;38541;48.130;8.378;2024-03-06T00:07:42;1.35;;;1.25;;
52248;SDS011;38541;48.130;8.378;2024-03-06T00:10:08;1.67;;;1.58;;
52248;SDS011;38541;48.130;8.378;2024-03-06T00:12:35;1.55;;;1.45;;
52248;SDS011;38541;48.130;8.378;2024-03-06T00:15:02;1.50;;;1.40;;
52248;SDS011;38541;48.130;8.378;2024-03-06T00:17:28;1.30;;;1.20;;
52248;SDS011;38541;48.130;8.378;2024-03-06T00:19:55;1.85;;;1.75;;
52248;SDS011;38541;48.130;8.378;2024-03-06T00:22:21;1.42;;;1.33;;
52248;SDS011;38541;48.130;8.378;2024-03-06T00:24:49;2.17;;;1.58;;
52248;SDS011;38541;48.130;8.378;2024-03-06T00:27:17;1.70;;;1.60;;
52248;SDS011;38541;48.130;8.378;2024-03-06T00:29:44;1.42;;;1.33;;
52248;SDS011;38541;48.130;8.378;2024-03-06T00:32:11;3.75;;;1.60;;
52248;SDS011;38541;48.130;8.378;2024-03-06T00:34:38;1.60;;;1.50;;
52248;SDS011;38541;48.130;8.378;2024-03-06T00:37:04;1.55;;;1.45;;
52248;SDS011;38541;48.130;8.378;2024-03-06T00:39:31;1.85;;;1.75;;
52248;SDS011;38541;48.130;8.378;2024-03-06T00:41:57;2.05;;;1.85;;
52248;SDS011;38541;48.130;8.378;2024-03-06T00:44:23;1.40;;;1.30;;
52248;SDS011;38541;48.130;8.378;2024-03-06T00:46:50;1.70;;;1.60;;
52248;SDS011;38541;48.130;8.378;2024-03-06T00:49:16;1.67;;;1.58;;
52248;SDS011;38541;48.130;8.378;2024-03-06T00:51:43;1.65;;;1.55;;
52248;SDS011;38541;48.130;8.378;2024-03-06T00:54:15;1.70;;;1.60;;
52248;SDS011;38541;48.130;8.378;2024-03-06T00:56:42;1.60;;;1.50;;
52248;SDS011;38541;48.130;8.378;2024-03-06T00:59:09;1.60;;;1.50;;
52248;SDS011;38541;48.130;8.378;2024-03-06T01:01:36;2.35;;;1.90;;
52248;SDS011;38541;48.130;8.378;2024-03-06T01:04:02;3.92;;;2.08;;
52248;SDS011;38541;48.130;8.378;2024-03-06T01:06:29;1.90;;;1.80;;
52248;SDS011;38541;48.130;8.378;2024-03-06T01:08:56;1.83;;;1.73;;
52248;SDS011;38541;48.130;8.378;2024-03-06T01:11:23;1.95;;;1.85;;
52248;SDS011;38541;48.130;8.378;2024-03-06T01:13:50;2.05;;;1.80;;
52248;SDS011;38541;48.130;8.378;2024-03-06T01:16:16;1.92;;;1.80;;
52248;SDS011;38541;48.130;8.378;2024-03-06T01:18:43;2.13;;;2.03;;
52248;SDS011;38541;48.130;8.378;2024-03-06T01:21:09;1.95;;;1.73;;
52248;SDS011;38541;48.130;8.378;2024-03-06T01:23:36;2.95;;;1.67;;
52248;SDS011;38541;48.130;8.378;2024-03-06T01:26:02;2.30;;;2.10;;
52248;SDS011;38541;48.130;8.378;2024-03-06T01:28:29;2.75;;;1.80;;
52248;SDS011;38541;48.130;8.378;2024-03-06T01:30:56;2.33;;;2.13;;
52248;SDS011;38541;48.130;8.378;2024-03-06T01:33:22;3.88;;;2.90;;
52248;SDS011;38541;48.130;8.378;2024-03-06T01:35:49;2.20;;;2.00;;
52248;SDS011;38541;48.130;8.378;2024-03-06T01:38:15;3.03;;;2.55;;
52248;SDS011;38541;48.130;8.378;2024-03-06T01:40:43;14.32;;;8.48;;
52248;SDS011;38541;48.130;8.378;2024-03-06T01:43:20;5.40;;;3.50;;
52248;SDS011;38541;48.130;8.378;2024-03-06T01:45:51;2.67;;;2.10;;
52248;SDS011;38541;48.130;8.378;2024-03-06T01:48:20;2.17;;;2.08;;
52248;SDS011;38541;48.130;8.378;2024-03-06T01:50:49;3.10;;;2.38;;
52248;SDS011;38541;48.130;8.378;2024-03-06T01:53:15;2.83;;;2.05;;
52248;SDS011;38541;48.130;8.378;2024-03-06T01:55:44;2.33;;;2.13;;
52248;SDS011;38541;48.130;8.378;2024-03-06T01:58:11;2.50;;;2.30;;
52248;SDS011;38541;48.130;8.378;2024-03-06T02:00:38;4.20;;;2.90;;
52248;SDS011;38541;48.130;8.378;2024-03-06T02:03:05;6.20;;;3.47;;
52248;SDS011;38541;48.130;8.378;2024-03-06T02:05:32;3.00;;;2.40;;
52248;SDS011;38541;48.130;8.378;2024-03-06T02:07:59;5.35;;;3.63;;
52248;SDS011;38541;48.130;8.378;2024-03-06T02:10:29;7.43;;;5.05;;
52248;SDS011;38541;48.130;8.378;2024-03-06T02:12:56;9.23;;;5.93;;
52248;SDS011;38541;48.130;8.378;2024-03-06T02:15:24;15.07;;;7.40;;
52248;SDS011;38541;48.130;8.378;2024-03-06T02:17:50;4.38;;;3.38;;
52248;SDS011;38541;48.130;8.378;2024-03-06T02:20:24;2.60;;;2.08;;
52248;SDS011;38541;48.130;8.378;2024-03-06T02:22:51;1.98;;;1.88;;
52248;SDS011;38541;48.130;8.378;2024-03-06T02:25:18;1.92;;;1.83;;
52248;SDS011;38541;48.130;8.378;2024-03-06T02:27:46;1.98;;;1.88;;
52248;SDS011;38541;48.130;8.378;2024-03-06T02:30:14;2.30;;;2.15;;
52248;SDS011;38541;48.130;8.378;2024-03-06T02:32:41;2.53;;;2.03;;
52248;SDS011;38541;48.130;8.378;2024-03-06T02:35:10;4.15;;;3.15;;
52248;SDS011;38541;48.130;8.378;2024-03-06T02:37:37;3.88;;;2.80;;
52248;SDS011;38541;48.130;8.378;2024-03-06T02:40:04;2.53;;;2.33;;
52248;SDS011;38541;48.130;8.378;2024-03-06T02:42:33;2.30;;;2.17;;
52248;SDS011;38541;48.130;8.378;2024-03-06T02:44:59;2.08;;;1.90;;
52248;SDS011;38541;48.130;8.378;2024-03-06T02:47:26;2.10;;;2.00;;
52248;SDS011;38541;48.130;8.378;2024-03-06T02:49:52;3.45;;;2.17;;
52248;SDS011;38541;48.130;8.378;2024-03-06T02:52:19;2.70;;;2.50;;
52248;SDS011;38541;48.130;8.378;2024-03-06T02:54:46;2.70;;;2.50;;
52248;SDS011;38541;48.130;8.378;2024-03-06T02:57:12;2.42;;;2.22;;
52248;SDS011;38541;48.130;8.378;2024-03-06T02:59:42;2.40;;;2.20;;
52248;SDS011;38541;48.130;8.378;2024-03-06T03:02:08;2.50;;;2.30;;
52248;SDS011;38541;48.130;8.378;2024-03-06T03:04:35;2.40;;;2.00;;
52248;SDS011;38541;48.130;8.378;2024-03-06T03:07:02;3.17;;;2.40;;
52248;SDS011;38541;48.130;8.378;2024-03-06T03:09:28;2.60;;;2.40;;
52248;SDS011;38541;48.130;8.378;2024-03-06T03:11:54;2.10;;;1.92;;
52248;SDS011;38541;48.130;8.378;2024-03-06T03:14:21;2.60;;;2.20;;
52248;SDS011;38541;48.130;8.378;2024-03-06T03:16:47;2.38;;;2.17;;
52248;SDS011;38541;48.130;8.378;2024-03-06T03:19:14;3.05;;;2.85;;
52248;SDS011;38541;48.130;8.378;2024-03-06T03:21:45;1.98;;;1.88;;
52248;SDS011;38541;48.130;8.378;2024-03-06T03:24:12;2.28;;;2.08;;
52248;SDS011;38541;48.130;8.378;2024-03-06T03:26:38;2.25;;;2.08;;
52248;SDS011;38541;48.130;8.378;2024-03-06T03:29:05;2.55;;;2.45;;
52248;SDS011;38541;48.130;8.378;2024-03-06T03:31:31;2.85;;;2.28;;
52248;SDS011;38541;48.130;8.378;2024-03-06T03:33:59;2.03;;;1.92;;
52248;SDS011;38541;48.130;8.378;2024-03-06T03:36:26;2.95;;;2.72;;
52248;SDS011;38541;48.130;8.378;2024-03-06T03:38:52;2.58;;;2.40;;
52248;SDS011;38541;48.130;8.378;2024-03-06T03:41:19;2.50;;;2.35;;
52248;SDS011;38541;48.130;8.378;2024-03-06T03:43:45;2.42;;;2.22;;
52248;SDS011;38541;48.130;8.378;2024-03-06T03:46:12;2.20;;;2.10;;
52248;SDS011;38541;48.130;8.378;2024-03-06T03:48:39;2.75;;;2.55;;
52248;SDS011;38541;48.130;8.378;2024-03-06T03:51:06;2.33;;;2.13;;
52248;SDS011;38541;48.130;8.378;2024-03-06T03:53:34;2.55;;;2.35;;
52248;SDS011;38541;48.130;8.378;2024-03-06T03:56:00;2.53;;;2.40;;
52248;SDS011;38541;48.130;8.378;2024-03-06T03:58:27;2.92;;;2.72;;
52248;SDS011;38541;48.130;8.378;2024-03-06T04:00:54;2.58;;;2.45;;
52248;SDS011;38541;48.130;8.378;2024-03-06T04:03:22;2.97;;;2.78;;
52248;SDS011;38541;48.130;8.378;2024-03-06T04:05:51;2.45;;;2.30;;
52248;SDS011;38541;48.130;8.378;2024-03-06T04:08:17;2.83;;;2.63;;
52248;SDS011;38541;48.130;8.378;2024-03-06T04:10:44;3.08;;;2.88;;
52248;SDS011;38541;48.130;8.378;2024-03-06T04:13:15;2.63;;;2.40;;
52248;SDS011;38541;48.130;8.378;2024-03-06T04:15:42;2.72;;;2.53;;
52248;SDS011;38541;48.130;8.378;2024-03-06T04:18:09;3.33;;;3.10;;
52248;SDS011;38541;48.130;8.378;2024-03-06T04:20:36;2.63;;;2.42;;
52248;SDS011;38541;48.130;8.378;2024-03-06T04:23:02;2.92;;;2.72;;
52248;SDS011;38541;48.130;8.378;2024-03-06T04:25:29;2.72;;;2.40;;
52248;SDS011;38541;48.130;8.378;2024-03-06T04:27:56;2.38;;;2.28;;
52248;SDS011;38541;48.130;8.378;2024-03-06T04:30:23;2.70;;;2.50;;
52248;SDS011;38541;48.130;8.378;2024-03-06T04:32:49;2.75;;;2.55;;
52248;SDS011;38541;48.130;8.378;2024-03-06T04:35:16;3.08;;;2.30;;
52248;SDS011;38541;48.130;8.378;2024-03-06T04:37:43;2.60;;;2.40;;
52248;SDS011;38541;48.130;8.378;2024-03-06T04:40:10;2.85;;;2.60;;
52248;SDS011;38541;48.130;8.378;2024-03-06T04:42:37;2.75;;;2.53;;
52248;SDS011;38541;48.130;8.378;2024-03-06T04:45:10;3.05;;;2.78;;
52248;SDS011;38541;48.130;8.378;2024-03-06T04:47:37;2.55;;;2.35;;
52248;SDS011;38541;48.130;8.378;2024-03-06T04:50:07;2.78;;;2.58;;
52248;SDS011;38541;48.130;8.378;2024-03-06T04:52:35;2.78;;;2.53;;
52248;SDS011;38541;48.130;8.378;2024-03-06T04:55:02;2.97;;;2.72;;
52248;SDS011;38541;48.130;8.378;2024-03-06T04:57:29;2.67;;;2.47;;
52248;SDS011;38541;48.130;8.378;2024-03-06T04:59:56;2.80;;;2.60;;
52248;SDS011;38541;48.130;8.378;2024-03-06T05:02:24;2.67;;;2.47;;
52248;SDS011;38541;48.130;8.378;2024-03-06T05:04:53;3.35;;;3.15;;
52248;SDS011;38541;48.130;8.378;2024-03-06T05:07:37;2.72;;;2.47;;
52248;SDS011;38541;48.130;8.378;2024-03-06T05:10:22;2.85;;;2.65;;
52248;SDS011;38541;48.130;8.378;2024-03-06T05:13:06;2.83;;;2.63;;
52248;SDS011;38541;48.130;8.378;2024-03-06T05:15:50;3.28;;;2.97;;
52248;SDS011;38541;48.130;8.378;2024-03-06T05:18:34;3.30;;;2.97;;
52248;SDS011;38541;48.130;8.378;2024-03-06T05:21:19;3.65;;;3.35;;
52248;SDS011;38541;48.130;8.378;2024-03-06T05:24:06;2.95;;;2.75;;
52248;SDS011;38541;48.130;8.378;2024-03-06T05:26:49;3.42;;;3.13;;
52248;SDS011;38541;48.130;8.378;2024-03-06T05:29:34;3.00;;;2.80;;
52248;SDS011;38541;48.130;8.378;2024-03-06T05:32:19;2.75;;;2.45;;
52248;SDS011;38541;48.130;8.378;2024-03-06T05:35:04;2.78;;;2.58;;
52248;SDS011;38541;48.130;8.378;2024-03-06T05:37:48;2.83;;;2.63;;
52248;SDS011;38541;48.130;8.378;2024-03-06T05:40:32;2.50;;;2.30;;
52248;SDS011;38541;48.130;8.378;2024-03-06T05:43:20;2.20;;;2.08;;
52248;SDS011;38541;48.130;8.378;2024-03-06T05:46:04;2.40;;;2.20;;
52248;SDS011;38541;48.130;8.378;2024-03-06T05:48:48;2.28;;;2.03;;
52248;SDS011;38541;48.130;8.378;2024-03-06T05:51:33;2.78;;;2.20;;
52248;SDS011;38541;48.130;8.378;2024-03-06T05:54:17;1.83;;;1.73;;
52248;SDS011;38541;48.130;8.378;2024-03-06T05:57:03;5.53;;;4.13;;
52248;SDS011;38541;48.130;8.378;2024-03-06T05:59:47;6.93;;;4.20;;
52248;SDS011;38541;48.130;8.378;2024-03-06T06:02:13;3.90;;;3.42;;
52248;SDS011;38541;48.130;8.378;2024-03-06T06:04:42;3.55;;;2.50;;
52248;SDS011;38541;48.130;8.378;2024-03-06T06:07:25;2.53;;;2.33;;
52248;SDS011;38541;48.130;8.378;2024-03-06T06:09:51;2.70;;;2.50;;
52248;SDS011;38541;48.130;8.378;2024-03-06T06:12:18;2.85;;;2.65;;
52248;SDS011;38541;48.130;8.378;2024-03-06T06:14:45;3.30;;;3.00;;
52248;SDS011;38541;48.130;8.378;2024-03-06T06:17:11;2.60;;;2.50;;
52248;SDS011;38541;48.130;8.378;2024-03-06T06:19:41;2.58;;;2.40;;
52248;SDS011;38541;48.130;8.378;2024-03-06T06:22:08;3.78;;;2.72;;
52248;SDS011;38541;48.130;8.378;2024-03-06T06:24:36;2.70;;;2.50;;
52248;SDS011;38541;48.130;8.378;2024-03-06T06:27:03;2.65;;;2.45;;
52248;SDS011;38541;48.130;8.378;2024-03-06T06:29:29;2.95;;;2.75;;
52248;SDS011;38541;48.130;8.378;2024-03-06T06:31:56;2.75;;;2.55;;
52248;SDS011;38541;48.130;8.378;2024-03-06T06:34:23;3.05;;;2.85;;
52248;SDS011;38541;48.130;8.378;2024-03-06T06:36:53;2.55;;;2.35;;
52248;SDS011;38541;48.130;8.378;2024-03-06T06:39:20;2.72;;;2.60;;
52248;SDS011;38541;48.130;8.378;2024-03-06T06:41:46;3.05;;;2.85;;
52248;SDS011;38541;48.130;8.378;2024-03-06T06:44:13;2.88;;;2.67;;
52248;SDS011;38541;48.130;8.378;2024-03-06T06:46:39;3.08;;;2.78;;
52248;SDS011;38541;48.130;8.378;2024-03-06T06:49:06;3.25;;;3.05;;
52248;SDS011;38541;48.130;8.378;2024-03-06T06:51:32;2.88;;;2.67;;
52248;SDS011;38541;48.130;8.378;2024-03-06T06:53:59;3.00;;;2.80;;
52248;SDS011;38541;48.130;8.378;2024-03-06T06:56:26;3.42;;;3.10;;
52248;SDS011;38541;48.130;8.378;2024-03-06T06:58:53;3.47;;;3.17;;
52248;SDS011;38541;48.130;8.378;2024-03-06T07:01:20;4.30;;;3.05;;
52248;SDS011;38541;48.130;8.378;2024-03-06T07:03:47;3.58;;;3.28;;
52248;SDS011;38541;48.130;8.378;2024-03-06T07:06:14;3.22;;;3.03;;
52248;SDS011;38541;48.130;8.378;2024-03-06T07:08:41;3.00;;;2.70;;
52248;SDS011;38541;48.130;8.378;2024-03-06T07:11:08;2.80;;;2.55;;
52248;SDS011;38541;48.130;8.378;2024-03-06T07:13:34;3.03;;;2.83;;
52248;SDS011;38541;48.130;8.378;2024-03-06T07:16:02;3.10;;;2.65;;
52248;SDS011;38541;48.130;8.378;2024-03-06T07:18:30;2.72;;;2.53;;
52248;SDS011;38541;48.130;8.378;2024-03-06T07:20:56;2.38;;;2.17;;
52248;SDS011;38541;48.130;8.378;2024-03-06T07:23:23;2.63;;;2.42;;
52248;SDS011;38541;48.130;8.378;2024-03-06T07:25:50;2.10;;;2.00;;
52248;SDS011;38541;48.130;8.378;2024-03-06T07:28:17;1.85;;;1.75;;
52248;SDS011;38541;48.130;8.378;2024-03-06T07:30:43;2.03;;;1.92;;
52248;SDS011;38541;48.130;8.378;2024-03-06T07:33:10;2.10;;;1.90;;
52248;SDS011;38541;48.130;8.378;2024-03-06T07:35:37;1.73;;;1.63;;
52248;SDS011;38541;48.130;8.378;2024-03-06T07:38:04;1.98;;;1.80;;
52248;SDS011;38541;48.130;8.378;2024-03-06T07:40:31;1.75;;;1.65;;
52248;SDS011;38541;48.130;8.378;2024-03-06T07:43:00;2.42;;;1.67;;
52248;SDS011;38541;48.130;8.378;2024-03-06T07:45:27;1.92;;;1.75;;
52248;SDS011;38541;48.130;8.378;2024-03-06T07:47:54;1.83;;;1.73;;
52248;SDS011;38541;48.130;8.378;2024-03-06T07:50:20;1.67;;;1.58;;
52248;SDS011;38541;48.130;8.378;2024-03-06T07:52:49;1.70;;;1.60;;
52248;SDS011;38541;48.130;8.378;2024-03-06T07:55:15;1.73;;;1.63;;
52248;SDS011;38541;48.130;8.378;2024-03-06T07:57:45;3.40;;;2.00;;
52248;SDS011;38541;48.130;8.378;2024-03-06T08:00:13;2.78;;;2.10;;
52248;SDS011;38541;48.130;8.378;2024-03-06T08:02:45;3.35;;;2.45;;
52248;SDS011;38541;48.130;8.378;2024-03-06T08:05:18;1.70;;;1.60;;
52248;SDS011;38541;48.130;8.378;2024-03-06T08:07:45;1.30;;;1.30;;
52248;SDS011;38541;48.130;8.378;2024-03-06T08:10:12;1.88;;;1.77;;
52248;SDS011;38541;48.130;8.378;2024-03-06T08:12:40;1.88;;;1.77;;
52248;SDS011;38541;48.130;8.378;2024-03-06T08:15:09;1.70;;;1.60;;
52248;SDS011;38541;48.130;8.378;2024-03-06T08:17:41;1.75;;;1.63;;
52248;SDS011;38541;48.130;8.378;2024-03-06T08:20:09;1.80;;;1.70;;
52248;SDS011;38541;48.130;8.378;2024-03-06T08:22:40;1.40;;;1.30;;
52248;SDS011;38541;48.130;8.378;2024-03-06T08:25:08;1.60;;;1.50;;
52248;SDS011;38541;48.130;8.378;2024-03-06T08:27:36;1.60;;;1.50;;
52248;SDS011;38541;48.130;8.378;2024-03-06T08:30:03;1.98;;;1.58;;
52248;SDS011;38541;48.130;8.378;2024-03-06T08:32:31;2.03;;;1.50;;
52248;SDS011;38541;48.130;8.378;2024-03-06T08:35:02;1.40;;;1.33;;
52248;SDS011;38541;48.130;8.378;2024-03-06T08:37:32;1.77;;;1.67;;
52248;SDS011;38541;48.130;8.378;2024-03-06T08:39:59;1.48;;;1.40;;
52248;SDS011;38541;48.130;8.378;2024-03-06T08:42:27;1.80;;;1.70;;
52248;SDS011;38541;48.130;8.378;2024-03-06T08:44:54;1.58;;;1.48;;
52248;SDS011;38541;48.130;8.378;2024-03-06T08:47:20;2.35;;;2.15;;
52248;SDS011;38541;48.130;8.378;2024-03-06T08:49:47;1.70;;;1.60;;
52248;SDS011;38541;48.130;8.378;2024-03-06T08:52:14;1.40;;;1.40;;
52248;SDS011;38541;48.130;8.378;2024-03-06T08:54:40;1.70;;;1.60;;
52248;SDS011;38541;48.130;8.378;2024-03-06T08:57:10;1.48;;;1.38;;
52248;SDS011;38541;48.130;8.378;2024-03-06T08:59:37;1.70;;;1.60;;
52248;SDS011;38541;48.130;8.378;2024-03-06T09:02:13;1.80;;;1.70;;
52248;SDS011;38541;48.130;8.378;2024-03-06T09:04:41;1.60;;;1.50;;
52248;SDS011;38541;48.130;8.378;2024-03-06T09:07:09;1.45;;;1.35;;
52248;SDS011;38541;48.130;8.378;2024-03-06T09:09:35;1.67;;;1.58;;
52248;SDS011;38541;48.130;8.378;2024-03-06T09:12:06;1.52;;;1.40;;
52248;SDS011;38541;48.130;8.378;2024-03-06T09:14:38;1.77;;;1.67;;
52248;SDS011;38541;48.130;8.378;2024-03-06T09:17:05;1.45;;;1.35;;
52248;SDS011;38541;48.130;8.378;2024-03-06T09:19:33;1.20;;;1.20;;
52248;SDS011;38541;48.130;8.378;2024-03-06T09:21:59;1.30;;;1.20;;
52248;SDS011;38541;48.130;8.378;2024-03-06T09:24:26;1.15;;;1.05;;
52248;SDS011;38541;48.130;8.378;2024-03-06T09:26:54;2.08;;;1.60;;
52248;SDS011;38541;48.130;8.378;2024-03-06T09:29:21;1.40;;;1.30;;
52248;SDS011;38541;48.130;8.378;2024-03-06T09:31:48;1.33;;;1.30;;
52248;SDS011;38541;48.130;8.378;2024-03-06T09:34:14;1.13;;;1.13;;
52248;SDS011;38541;48.130;8.378;2024-03-06T09:36:42;1.08;;;1.08;;
52248;SDS011;38541;48.130;8.378;2024-03-06T09:39:12;1.30;;;1.30;;
52248;SDS011;38541;48.130;8.378;2024-03-06T09:41:52;1.85;;;1.23;;
52248;SDS011;38541;48.130;8.378;2024-03-06T09:44:20;1.23;;;1.13;;
52248;SDS011;38541;48.130;8.378;2024-03-06T09:46:48;1.23;;;1.20;;
52248;SDS011;38541;48.130;8.378;2024-03-06T09:49:16;1.42;;;1.35;;
52248;SDS011;38541;48.130;8.378;2024-03-06T09:51:46;1.08;;;1.08;;
52248;SDS011;38541;48.130;8.378;2024-03-06T09:54:16;1.75;;;1.65;;
52248;SDS011;38541;48.130;8.378;2024-03-06T09:56:46;1.77;;;1.40;;
52248;SDS011;38541;48.130;8.378;2024-03-06T09:59:14;1.13;;;1.10;;
52248;SDS011;38541;48.130;8.378;2024-03-06T10:04:22;1.20;;;1.20;;
52248;SDS011;38541;48.130;8.378;2024-03-06T10:06:54;1.38;;;1.27;;
52248;SDS011;38541;48.130;8.378;2024-03-06T10:09:25;1.42;;;1.42;;
52248;SDS011;38541;48.130;8.378;2024-03-06T10:11:53;1.20;;;1.20;;
52248;SDS011;38541;48.130;8.378;2024-03-06T10:14:22;1.63;;;1.20;;
52248;SDS011;38541;48.130;8.378;2024-03-06T10:16:55;1.27;;;1.17;;
52248;SDS011;38541;48.130;8.378;2024-03-06T10:19:24;1.67;;;1.35;;
52248;SDS011;38541;48.130;8.378;2024-03-06T10:21:54;1.30;;;1.20;;
52248;SDS011;38541;48.130;8.378;2024-03-06T10:24:22;1.48;;;1.38;;
52248;SDS011;38541;48.130;8.378;2024-03-06T10:26:59;1.25;;;1.15;;
52248;SDS011;38541;48.130;8.378;2024-03-06T10:29:27;1.70;;;1.60;;
52248;SDS011;38541;48.130;8.378;2024-03-06T10:31:58;1.38;;;1.23;;
52248;SDS011;38541;48.130;8.378;2024-03-06T10:34:26;1.95;;;1.85;;
52248;SDS011;38541;48.130;8.378;2024-03-06T10:36:58;1.20;;;1.20;;
52248;SDS011;38541;48.130;8.378;2024-03-06T10:39:25;1.45;;;1.35;;
52248;SDS011;38541;48.130;8.378;2024-03-06T10:41:52;1.20;;;1.10;;
52248;SDS011;38541;48.130;8.378;2024-03-06T10:44:26;1.05;;;1.05;;
52248;SDS011;38541;48.130;8.378;2024-03-06T10:49:30;1.20;;;1.20;;
52248;SDS011;38541;48.130;8.378;2024-03-06T10:51:59;1.27;;;1.17;;
52248;SDS011;38541;48.130;8.378;2024-03-06T10:54:29;3.17;;;2.10;;
52248;SDS011;38541;48.130;8.378;2024-03-06T10:56:57;1.52;;;1.20;;
52248;SDS011;38541;48.130;8.378;2024-03-06T10:59:24;1.98;;;1.35;;
52248;SDS011;38541;48.130;8.378;2024-03-06T11:01:56;1.70;;;1.60;;
52248;SDS011;38541;48.130;8.378;2024-03-06T11:04:24;1.20;;;1.10;;
52248;SDS011;38541;48.130;8.378;2024-03-06T11:06:55;1.40;;;1.30;;
52248;SDS011;38541;48.130;8.378;2024-03-06T11:09:22;1.60;;;1.50;;
52248;SDS011;38541;48.130;8.378;2024-03-06T11:11:50;1.10;;;1.10;;
52248;SDS011;38541;48.130;8.378;2024-03-06T11:14:18;1.98;;;1.73;;
52248;SDS011;38541;48.130;8.378;2024-03-06T11:17:07;1.58;;;1.48;;
52248;SDS011;38541;48.130;8.378;2024-03-06T11:28:20;1.48;;;1.30;;
52248;SDS011;38541;48.130;8.378;2024-03-06T11:30:58;1.50;;;1.30;;
52248;SDS011;38541;48.130;8.378;2024-03-06T11:33:36;1.80;;;1.70;;
52248;SDS011;38541;48.130;8.378;2024-03-06T11:38:52;1.45;;;1.40;;
52248;SDS011;38541;48.130;8.378;2024-03-06T11:41:22;1.48;;;1.38;;
52248;SDS011;38541;48.130;8.378;2024-03-06T11:43:51;1.55;;;1.45;;
52248;SDS011;38541;48.130;8.378;2024-03-06T11:46:20;1.65;;;1.55;;
52248;SDS011;38541;48.130;8.378;2024-03-06T11:48:53;2.10;;;1.80;;
52248;SDS011;38541;48.130;8.378;2024-03-06T11:51:24;1.67;;;1.58;;
52248;SDS011;38541;48.130;8.378;2024-03-06T11:53:50;1.40;;;1.30;;
52248;SDS011;38541;48.130;8.378;2024-03-06T11:56:18;2.10;;;2.00;;
52248;SDS011;38541;48.130;8.378;2024-03-06T11:58:46;1.60;;;1.50;;
52248;SDS011;38541;48.130;8.378;2024-03-06T12:01:15;1.52;;;1.40;;
52248;SDS011;38541;48.130;8.378;2024-03-06T12:03:43;1.65;;;1.25;;
52248;SDS011;38541;48.130;8.378;2024-03-06T12:06:10;1.40;;;1.30;;
52248;SDS011;38541;48.130;8.378;2024-03-06T12:08:36;1.60;;;1.50;;
52248;SDS011;38541;48.130;8.378;2024-03-06T12:11:05;1.55;;;1.45;;
52248;SDS011;38541;48.130;8.378;2024-03-06T12:13:32;1.58;;;1.48;;
52248;SDS011;38541;48.130;8.378;2024-03-06T12:15:58;1.67;;;1.55;;
52248;SDS011;38541;48.130;8.378;2024-03-06T12:18:30;1.60;;;1.50;;
52248;SDS011;38541;48.130;8.378;2024-03-06T12:20:57;1.45;;;1.35;;
52248;SDS011;38541;48.130;8.378;2024-03-06T12:23:26;1.67;;;1.58;;
52248;SDS011;38541;48.130;8.378;2024-03-06T12:26:03;2.05;;;1.95;;
52248;SDS011;38541;48.130;8.378;2024-03-06T12:28:32;2.60;;;2.40;;
52248;SDS011;38541;48.130;8.378;2024-03-06T12:30:59;2.08;;;1.92;;
52248;SDS011;38541;48.130;8.378;2024-03-06T12:33:28;2.67;;;2.05;;
52248;SDS011;38541;48.130;8.378;2024-03-06T12:36:05;2.10;;;1.90;;
52248;SDS011;38541;48.130;8.378;2024-03-06T12:38:33;1.90;;;1.80;;
52248;SDS011;38541;48.130;8.378;2024-03-06T12:41:00;3.08;;;2.45;;
52248;SDS011;38541;48.130;8.378;2024-03-06T12:43:26;2.22;;;2.03;;
52248;SDS011;38541;48.130;8.378;2024-03-06T12:45:55;2.50;;;2.30;;
52248;SDS011;38541;48.130;8.378;2024-03-06T12:48:24;2.20;;;2.00;;
52248;SDS011;38541;48.130;8.378;2024-03-06T12:50:52;2.70;;;2.50;;
52248;SDS011;38541;48.130;8.378;2024-03-06T12:53:21;2.40;;;2.20;;
52248;SDS011;38541;48.130;8.378;2024-03-06T12:55:48;2.28;;;2.08;;
52248;SDS011;38541;48.130;8.378;2024-03-06T12:58:14;2.97;;;2.78;;
52248;SDS011;38541;48.130;8.378;2024-03-06T13:00:41;2.58;;;2.38;;
52248;SDS011;38541;48.130;8.378;2024-03-06T13:03:08;3.53;;;2.95;;
52248;SDS011;38541;48.130;8.378;2024-03-06T13:05:34;2.88;;;2.67;;
52248;SDS011;38541;48.130;8.378;2024-03-06T13:08:01;3.67;;;2.75;;
52248;SDS011;38541;48.130;8.378;2024-03-06T13:10:28;3.50;;;2.50;;
52248;SDS011;38541;48.130;8.378;2024-03-06T13:12:55;3.85;;;3.33;;
52248;SDS011;38541;48.130;8.378;2024-03-06T13:15:21;3.28;;;3.00;;
52248;SDS011;38541;48.130;8.378;2024-03-06T13:17:48;3.35;;;3.08;;
52248;SDS011;38541;48.130;8.378;2024-03-06T13:20:15;3.40;;;3.10;;
52248;SDS011;38541;48.130;8.378;2024-03-06T13:22:41;4.03;;;3.15;;
52248;SDS011;38541;48.130;8.378;2024-03-06T13:25:09;4.10;;;3.70;;
52248;SDS011;38541;48.130;8.378;2024-03-06T13:27:36;3.35;;;3.05;;
52248;SDS011;38541;48.130;8.378;2024-03-06T13:30:02;3.63;;;3.33;;
52248;SDS011;38541;48.130;8.378;2024-03-06T13:32:31;4.35;;;3.45;;
52248;SDS011;38541;48.130;8.378;2024-03-06T13:34:58;3.47;;;3.17;;
52248;SDS011;38541;48.130;8.378;2024-03-06T13:37:24;3.25;;;2.95;;
52248;SDS011;38541;48.130;8.378;2024-03-06T13:39:51;3.42;;;3.13;;
52248;SDS011;38541;48.130;8.378;2024-03-06T13:42:19;3.70;;;3.40;;
52248;SDS011;38541;48.130;8.378;2024-03-06T13:44:46;4.07;;;3.40;;
52248;SDS011;38541;48.130;8.378;2024-03-06T13:47:14;4.07;;;3.15;;
52248;SDS011;38541;48.130;8.378;2024-03-06T13:49:42;3.58;;;3.20;;
52248;SDS011;38541;48.130;8.378;2024-03-06T13:52:09;4.20;;;3.80;;
52248;SDS011;38541;48.130;8.378;2024-03-06T13:54:41;4.45;;;3.53;;
52248;SDS011;38541;48.130;8.378;2024-03-06T13:57:08;3.13;;;2.92;;
52248;SDS011;38541;48.130;8.378;2024-03-06T13:59:35;3.20;;;2.90;;
52248;SDS011;38541;48.130;8.378;2024-03-06T14:02:04;6.93;;;3.50;;
52248;SDS011;38541;48.130;8.378;2024-03-06T14:04:30;3.78;;;3.47;;
52248;SDS011;38541;48.130;8.378;2024-03-06T14:06:57;3.88;;;3.47;;
52248;SDS011;38541;48.130;8.378;2024-03-06T14:09:25;3.30;;;3.00;;
52248;SDS011;38541;48.130;8.378;2024-03-06T14:11:53;3.15;;;2.95;;
52248;SDS011;38541;48.130;8.378;2024-03-06T14:14:20;3.13;;;2.90;;
52248;SDS011;38541;48.130;8.378;2024-03-06T14:16:46;3.03;;;2.72;;
52248;SDS011;38541;48.130;8.378;2024-03-06T14:19:14;2.95;;;2.75;;
52248;SDS011;38541;48.130;8.378;2024-03-06T14:21:41;2.72;;;2.53;;
52248;SDS011;38541;48.130;8.378;2024-03-06T14:24:07;3.28;;;2.97;;
52248;SDS011;38541;48.130;8.378;2024-03-06T14:26:35;3.40;;;3.10;;
52248;SDS011;38541;48.130;8.378;2024-03-06T14:29:02;3.28;;;2.97;;
52248;SDS011;38541;48.130;8.378;2024-03-06T14:31:32;2.78;;;2.58;;
52248;SDS011;38541;48.130;8.378;2024-03-06T14:33:58;3.42;;;3.22;;
52248;SDS011;38541;48.130;8.378;2024-03-06T14:36:29;3.30;;;2.88;;
52248;SDS011;38541;48.130;8.378;2024-03-06T14:38:56;3.28;;;2.97;;
52248;SDS011;38541;48.130;8.378;2024-03-06T14:41:23;3.55;;;3.25;;
52248;SDS011;38541;48.130;8.378;2024-03-06T14:43:49;3.83;;;3.53;;
52248;SDS011;38541;48.130;8.378;2024-03-06T14:46:16;3.13;;;2.92;;
52248;SDS011;38541;48.130;8.378;2024-03-06T14:48:42;3.88;;;3.53;;
52248;SDS011;38541;48.130;8.378;2024-03-06T14:51:11;3.58;;;2.92;;
52248;SDS011;38541;48.130;8.378;2024-03-06T14:53:37;3.15;;;2.85;;
52248;SDS011;38541;48.130;8.378;2024-03-06T14:56:04;2.97;;;2.78;;
52248;SDS011;38541;48.130;8.378;2024-03-06T14:58:31;2.72;;;2.53;;
52248;SDS011;38541;48.130;8.378;2024-03-06T15:00:58;3.20;;;2.90;;
52248;SDS011;38541;48.130;8.378;2024-03-06T15:03:24;2.72;;;2.53;;
52248;SDS011;38541;48.130;8.378;2024-03-06T15:05:51;3.45;;;2.95;;
52248;SDS011;38541;48.130;8.378;2024-03-06T15:08:19;2.65;;;2.45;;
52248;SDS011;38541;48.130;8.378;2024-03-06T15:10:45;2.63;;;2.42;;
52248;SDS011;38541;48.130;8.378;2024-03-06T15:13:12;2.50;;;2.30;;